sensor_id;sensor_type;location;lat;lon;timestamp;pressure;altitude;pressure_sealevel;temperature;humidity
163;BME280;3946;48.958;8.284;2023-07-28T00:02:41;99670.00;;;19.59;92.77
163;BME280;3946;48.958;8.284;2023-07-28T00:05:26;99668.44;;;19.72;91.95
163;BME280;3946;48.958;8.284;2023-07-28T00:08:12;99670.47;;;19.85;93.01
163;BME280;3946;48.958;8.284;2023-07-28T00:10:57;99673.03;;;19.70;93.37
163;BME280;3946;48.958;8.284;2023-07-28T00:13:44;99683.63;;;19.54;94.38
163;BME280;3946;48.958;8.284;2023-07-28T00:16:29;99675.19;;;19.67;94.37
163;BME280;3946;48.958;8.284;2023-07-28T00:19:14;99673.13;;;19.54;95.10
163;BME280;3946;48.958;8.284;2023-07-28T00:22:00;99665.22;;;19.62;94.25
163;BME280;3946;48.958;8.284;2023-07-28T00:24:45;99662.94;;;19.51;94.33
163;BME280;3946;48.958;8.284;2023-07-28T00:27:30;99669.38;;;19.40;95.40
163;BME280;3946;48.958;8.284;2023-07-28T00:30:17;99662.59;;;19.62;95.28
163;BME280;3946;48.958;8.284;2023-07-28T00:33:03;99662.16;;;19.42;95.75
163;BME280;3946;48.958;8.284;2023-07-28T00:35:48;99652.88;;;19.23;97.01
163;BME280;3946;48.958;8.284;2023-07-28T00:38:33;99660.44;;;19.18;98.00
163;BME280;3946;48.958;8.284;2023-07-28T00:41:19;99659.91;;;19.31;97.95
163;BME280;3946;48.958;8.284;2023-07-28T00:44:04;99666.00;;;19.23;97.63
163;BME280;3946;48.958;8.284;2023-07-28T00:46:51;99666.16;;;19.22;98.18
163;BME280;3946;48.958;8.284;2023-07-28T00:49:37;99657.50;;;19.13;98.79
163;BME280;3946;48.958;8.284;2023-07-28T00:52:23;99659.97;;;19.15;99.10
163;BME280;3946;48.958;8.284;2023-07-28T00:55:08;99660.63;;;19.09;99.37
163;BME280;3946;48.958;8.284;2023-07-28T00:57:54;99670.66;;;19.13;99.31
163;BME280;3946;48.958;8.284;2023-07-28T01:00:39;99661.06;;;19.29;96.27
163;BME280;3946;48.958;8.284;2023-07-28T01:03:26;99668.50;;;19.09;98.72
163;BME280;3946;48.958;8.284;2023-07-28T01:06:16;99664.63;;;18.97;100.00
163;BME280;3946;48.958;8.284;2023-07-28T01:09:06;99665.78;;;18.86;100.00
163;BME280;3946;48.958;8.284;2023-07-28T01:11:54;99667.94;;;18.82;100.00
163;BME280;3946;48.958;8.284;2023-07-28T01:14:41;99674.47;;;18.86;100.00
163;BME280;3946;48.958;8.284;2023-07-28T01:17:26;99681.41;;;18.79;100.00
163;BME280;3946;48.958;8.284;2023-07-28T01:20:13;99692.47;;;19.14;100.00
163;BME280;3946;48.958;8.284;2023-07-28T01:23:07;99687.59;;;18.86;100.00
163;BME280;3946;48.958;8.284;2023-07-28T01:26:00;99688.59;;;18.85;100.00
163;BME280;3946;48.958;8.284;2023-07-28T01:28:50;99683.84;;;18.73;100.00
163;BME280;3946;48.958;8.284;2023-07-28T01:31:35;99681.25;;;18.65;100.00
163;BME280;3946;48.958;8.284;2023-07-28T01:34:21;99686.16;;;18.60;100.00
163;BME280;3946;48.958;8.284;2023-07-28T01:37:06;99684.66;;;18.57;100.00
163;BME280;3946;48.958;8.284;2023-07-28T01:39:51;99675.50;;;18.61;100.00
163;BME280;3946;48.958;8.284;2023-07-28T01:42:38;99667.31;;;18.64;100.00
163;BME280;3946;48.958;8.284;2023-07-28T01:45:25;99668.09;;;18.57;100.00
163;BME280;3946;48.958;8.284;2023-07-28T01:48:10;99670.88;;;18.55;100.00
163;BME280;3946;48.958;8.284;2023-07-28T01:50:55;99677.13;;;18.54;100.00
163;BME280;3946;48.958;8.284;2023-07-28T01:53:41;99682.56;;;18.61;100.00
163;BME280;3946;48.958;8.284;2023-07-28T01:56:26;99688.59;;;18.53;100.00
163;BME280;3946;48.958;8.284;2023-07-28T01:59:11;99690.09;;;18.47;100.00
163;BME280;3946;48.958;8.284;2023-07-28T02:01:58;99687.94;;;18.51;100.00
163;BME280;3946;48.958;8.284;2023-07-28T02:04:43;99689.75;;;18.42;100.00
163;BME280;3946;48.958;8.284;2023-07-28T02:07:29;99685.66;;;18.40;100.00
163;BME280;3946;48.958;8.284;2023-07-28T02:10:14;99687.13;;;18.42;100.00
163;BME280;3946;48.958;8.284;2023-07-28T02:13:00;99694.84;;;18.44;100.00
163;BME280;3946;48.958;8.284;2023-07-28T02:15:45;99685.53;;;18.66;100.00
163;BME280;3946;48.958;8.284;2023-07-28T02:18:32;99683.38;;;18.77;100.00
163;BME280;3946;48.958;8.284;2023-07-28T02:21:17;99689.91;;;18.98;100.00
163;BME280;3946;48.958;8.284;2023-07-28T02:24:03;99677.13;;;19.34;99.71
163;BME280;3946;48.958;8.284;2023-07-28T02:26:48;99690.72;;;19.45;97.64
163;BME280;3946;48.958;8.284;2023-07-28T02:29:34;99697.44;;;18.84;100.00
163;BME280;3946;48.958;8.284;2023-07-28T02:32:19;99704.00;;;18.56;100.00
163;BME280;3946;48.958;8.284;2023-07-28T02:35:07;99698.94;;;18.38;100.00
163;BME280;3946;48.958;8.284;2023-07-28T02:37:52;99704.66;;;18.26;100.00
163;BME280;3946;48.958;8.284;2023-07-28T02:40:38;99707.94;;;18.19;100.00
163;BME280;3946;48.958;8.284;2023-07-28T02:43:23;99707.31;;;18.34;100.00
163;BME280;3946;48.958;8.284;2023-07-28T02:46:08;99717.28;;;18.54;100.00
163;BME280;3946;48.958;8.284;2023-07-28T02:48:54;99727.63;;;18.32;100.00
163;BME280;3946;48.958;8.284;2023-07-28T02:51:40;99730.06;;;18.17;100.00
163;BME280;3946;48.958;8.284;2023-07-28T02:54:26;99729.06;;;18.10;100.00
163;BME280;3946;48.958;8.284;2023-07-28T02:57:11;99733.81;;;18.06;100.00
163;BME280;3946;48.958;8.284;2023-07-28T03:00:00;99732.47;;;18.02;100.00
163;BME280;3946;48.958;8.284;2023-07-28T03:02:46;99732.97;;;18.06;100.00
163;BME280;3946;48.958;8.284;2023-07-28T03:05:32;99723.81;;;18.02;100.00
163;BME280;3946;48.958;8.284;2023-07-28T03:08:41;99729.09;;;18.26;100.00
163;BME280;3946;48.958;8.284;2023-07-28T03:11:41;99736.81;;;18.52;100.00
163;BME280;3946;48.958;8.284;2023-07-28T03:14:27;99722.88;;;18.68;100.00
163;BME280;3946;48.958;8.284;2023-07-28T03:17:13;99716.50;;;18.46;100.00
163;BME280;3946;48.958;8.284;2023-07-28T03:19:58;99727.31;;;18.75;100.00
163;BME280;3946;48.958;8.284;2023-07-28T03:22:43;99728.66;;;18.63;100.00
163;BME280;3946;48.958;8.284;2023-07-28T03:25:30;99728.81;;;18.78;100.00
163;BME280;3946;48.958;8.284;2023-07-28T03:28:15;99738.16;;;18.80;100.00
163;BME280;3946;48.958;8.284;2023-07-28T03:31:00;99741.56;;;19.05;100.00
163;BME280;3946;48.958;8.284;2023-07-28T03:33:45;99746.00;;;18.88;100.00
163;BME280;3946;48.958;8.284;2023-07-28T03:36:31;99746.81;;;18.57;100.00
163;BME280;3946;48.958;8.284;2023-07-28T03:39:17;99756.03;;;18.61;100.00
163;BME280;3946;48.958;8.284;2023-07-28T03:42:07;99751.13;;;18.66;100.00
163;BME280;3946;48.958;8.284;2023-07-28T03:44:52;99740.44;;;18.83;100.00
163;BME280;3946;48.958;8.284;2023-07-28T03:47:38;99738.47;;;18.94;100.00
163;BME280;3946;48.958;8.284;2023-07-28T03:50:24;99744.88;;;18.75;100.00
163;BME280;3946;48.958;8.284;2023-07-28T03:53:10;99744.06;;;18.74;100.00
163;BME280;3946;48.958;8.284;2023-07-28T03:55:56;99736.34;;;18.81;100.00
163;BME280;3946;48.958;8.284;2023-07-28T03:58:43;99736.16;;;18.99;100.00
163;BME280;3946;48.958;8.284;2023-07-28T04:01:29;99740.91;;;18.87;100.00
163;BME280;3946;48.958;8.284;2023-07-28T04:04:15;99752.91;;;18.90;100.00
163;BME280;3946;48.958;8.284;2023-07-28T04:07:00;99735.31;;;19.06;100.00
163;BME280;3946;48.958;8.284;2023-07-28T04:09:45;99740.69;;;19.21;100.00
163;BME280;3946;48.958;8.284;2023-07-28T04:12:31;99748.09;;;19.26;100.00
163;BME280;3946;48.958;8.284;2023-07-28T04:15:17;99751.41;;;19.11;100.00
163;BME280;3946;48.958;8.284;2023-07-28T04:18:03;99740.75;;;19.13;100.00
163;BME280;3946;48.958;8.284;2023-07-28T04:20:48;99754.06;;;18.79;100.00
163;BME280;3946;48.958;8.284;2023-07-28T04:23:33;99750.25;;;19.06;100.00
163;BME280;3946;48.958;8.284;2023-07-28T04:26:19;99750.25;;;19.14;100.00
163;BME280;3946;48.958;8.284;2023-07-28T04:29:09;99745.34;;;19.11;100.00
163;BME280;3946;48.958;8.284;2023-07-28T04:31:56;99749.94;;;18.68;100.00
163;BME280;3946;48.958;8.284;2023-07-28T04:34:48;99764.25;;;18.82;100.00
163;BME280;3946;48.958;8.284;2023-07-28T04:37:41;99756.19;;;18.92;100.00
163;BME280;3946;48.958;8.284;2023-07-28T04:40:29;99754.88;;;18.87;100.00
163;BME280;3946;48.958;8.284;2023-07-28T04:43:14;99759.16;;;18.72;100.00
163;BME280;3946;48.958;8.284;2023-07-28T04:46:06;99766.88;;;18.82;100.00
163;BME280;3946;48.958;8.284;2023-07-28T04:48:54;99777.69;;;18.71;100.00
163;BME280;3946;48.958;8.284;2023-07-28T04:52:12;99783.91;;;18.70;100.00
163;BME280;3946;48.958;8.284;2023-07-28T04:55:26;99775.22;;;18.85;100.00
163;BME280;3946;48.958;8.284;2023-07-28T04:58:11;99780.47;;;18.85;100.00
163;BME280;3946;48.958;8.284;2023-07-28T05:01:05;99784.06;;;19.09;100.00
163;BME280;3946;48.958;8.284;2023-07-28T05:03:54;99777.81;;;19.26;100.00
163;BME280;3946;48.958;8.284;2023-07-28T05:06:43;99795.75;;;18.98;100.00
163;BME280;3946;48.958;8.284;2023-07-28T05:09:29;99789.13;;;19.18;100.00
163;BME280;3946;48.958;8.284;2023-07-28T05:12:14;99783.25;;;19.08;100.00
163;BME280;3946;48.958;8.284;2023-07-28T05:15:04;99779.28;;;19.20;100.00
163;BME280;3946;48.958;8.284;2023-07-28T05:17:50;99777.31;;;19.22;100.00
163;BME280;3946;48.958;8.284;2023-07-28T05:20:59;99795.41;;;19.09;100.00
163;BME280;3946;48.958;8.284;2023-07-28T05:23:45;99791.47;;;18.97;100.00
163;BME280;3946;48.958;8.284;2023-07-28T05:26:31;99805.72;;;19.03;100.00
163;BME280;3946;48.958;8.284;2023-07-28T05:29:16;99804.56;;;19.21;100.00
163;BME280;3946;48.958;8.284;2023-07-28T05:32:03;99787.31;;;19.19;100.00
163;BME280;3946;48.958;8.284;2023-07-28T05:34:55;99804.22;;;19.16;100.00
163;BME280;3946;48.958;8.284;2023-07-28T05:37:42;99806.22;;;19.06;100.00
163;BME280;3946;48.958;8.284;2023-07-28T05:40:27;99817.22;;;18.94;100.00
163;BME280;3946;48.958;8.284;2023-07-28T05:43:12;99808.34;;;19.27;100.00
163;BME280;3946;48.958;8.284;2023-07-28T05:45:58;99814.94;;;19.07;100.00
163;BME280;3946;48.958;8.284;2023-07-28T05:48:47;99830.34;;;19.02;100.00
163;BME280;3946;48.958;8.284;2023-07-28T05:51:32;99834.94;;;19.08;100.00
163;BME280;3946;48.958;8.284;2023-07-28T05:54:19;99827.41;;;19.13;100.00
163;BME280;3946;48.958;8.284;2023-07-28T05:57:05;99831.19;;;19.10;100.00
163;BME280;3946;48.958;8.284;2023-07-28T05:59:50;99833.47;;;19.13;100.00
163;BME280;3946;48.958;8.284;2023-07-28T06:02:36;99838.22;;;18.77;100.00
163;BME280;3946;48.958;8.284;2023-07-28T06:05:21;99844.78;;;18.90;100.00
163;BME280;3946;48.958;8.284;2023-07-28T06:08:06;99840.88;;;18.94;100.00
163;BME280;3946;48.958;8.284;2023-07-28T06:10:53;99848.75;;;18.94;100.00
163;BME280;3946;48.958;8.284;2023-07-28T06:13:38;99851.84;;;18.65;100.00
163;BME280;3946;48.958;8.284;2023-07-28T06:16:23;99860.19;;;18.68;100.00
163;BME280;3946;48.958;8.284;2023-07-28T06:19:09;99862.03;;;18.92;100.00
163;BME280;3946;48.958;8.284;2023-07-28T06:21:56;99849.06;;;18.91;100.00
163;BME280;3946;48.958;8.284;2023-07-28T06:24:41;99849.38;;;18.71;100.00
163;BME280;3946;48.958;8.284;2023-07-28T06:27:28;99857.09;;;18.81;100.00
163;BME280;3946;48.958;8.284;2023-07-28T06:30:13;99857.41;;;18.86;100.00
163;BME280;3946;48.958;8.284;2023-07-28T06:32:59;99855.63;;;18.95;100.00
163;BME280;3946;48.958;8.284;2023-07-28T06:35:44;99860.56;;;18.81;100.00
163;BME280;3946;48.958;8.284;2023-07-28T06:38:30;99864.63;;;18.84;100.00
163;BME280;3946;48.958;8.284;2023-07-28T06:41:15;99866.28;;;18.93;100.00
163;BME280;3946;48.958;8.284;2023-07-28T06:44:04;99868.41;;;18.90;100.00
163;BME280;3946;48.958;8.284;2023-07-28T06:46:52;99883.66;;;18.86;100.00
163;BME280;3946;48.958;8.284;2023-07-28T06:49:37;99879.78;;;18.98;100.00
163;BME280;3946;48.958;8.284;2023-07-28T06:52:23;99882.88;;;19.02;100.00
163;BME280;3946;48.958;8.284;2023-07-28T06:55:08;99883.53;;;18.96;100.00
163;BME280;3946;48.958;8.284;2023-07-28T06:57:54;99895.84;;;19.03;100.00
163;BME280;3946;48.958;8.284;2023-07-28T07:00:40;99897.78;;;18.77;100.00
163;BME280;3946;48.958;8.284;2023-07-28T07:03:26;99904.53;;;19.04;100.00
163;BME280;3946;48.958;8.284;2023-07-28T07:06:11;99895.84;;;19.11;100.00
163;BME280;3946;48.958;8.284;2023-07-28T07:08:57;99906.97;;;18.89;100.00
163;BME280;3946;48.958;8.284;2023-07-28T07:11:42;99907.34;;;19.10;100.00
163;BME280;3946;48.958;8.284;2023-07-28T07:14:28;99917.31;;;18.91;100.00
163;BME280;3946;48.958;8.284;2023-07-28T07:17:14;99915.38;;;19.17;100.00
163;BME280;3946;48.958;8.284;2023-07-28T07:20:00;99906.03;;;19.47;100.00
163;BME280;3946;48.958;8.284;2023-07-28T07:22:45;99905.38;;;19.29;100.00
163;BME280;3946;48.958;8.284;2023-07-28T07:25:31;99913.41;;;19.27;100.00
163;BME280;3946;48.958;8.284;2023-07-28T07:28:20;99906.03;;;19.47;100.00
163;BME280;3946;48.958;8.284;2023-07-28T07:31:11;99898.78;;;19.33;100.00
163;BME280;3946;48.958;8.284;2023-07-28T07:33:58;99899.13;;;19.46;100.00
163;BME280;3946;48.958;8.284;2023-07-28T07:36:45;99909.31;;;19.41;100.00
163;BME280;3946;48.958;8.284;2023-07-28T07:39:30;99909.94;;;19.67;100.00
163;BME280;3946;48.958;8.284;2023-07-28T07:42:16;99913.41;;;19.68;100.00
163;BME280;3946;48.958;8.284;2023-07-28T07:45:03;99916.16;;;19.90;100.00
163;BME280;3946;48.958;8.284;2023-07-28T07:47:48;99918.16;;;19.80;100.00
163;BME280;3946;48.958;8.284;2023-07-28T07:50:35;99915.47;;;20.05;100.00
163;BME280;3946;48.958;8.284;2023-07-28T07:53:20;99911.19;;;20.51;100.00
163;BME280;3946;48.958;8.284;2023-07-28T07:56:06;99902.13;;;20.53;100.00
163;BME280;3946;48.958;8.284;2023-07-28T07:58:52;99898.56;;;20.77;100.00
163;BME280;3946;48.958;8.284;2023-07-28T08:01:37;99900.38;;;20.77;100.00
163;BME280;3946;48.958;8.284;2023-07-28T08:04:22;99904.75;;;21.07;100.00
163;BME280;3946;48.958;8.284;2023-07-28T08:07:09;99905.66;;;21.22;100.00
163;BME280;3946;48.958;8.284;2023-07-28T08:09:54;99908.94;;;21.16;100.00
163;BME280;3946;48.958;8.284;2023-07-28T08:12:40;99906.66;;;21.21;100.00
163;BME280;3946;48.958;8.284;2023-07-28T08:15:28;99903.69;;;21.39;100.00
163;BME280;3946;48.958;8.284;2023-07-28T08:18:14;99901.72;;;21.41;100.00
163;BME280;3946;48.958;8.284;2023-07-28T08:20:59;99903.50;;;21.18;100.00
163;BME280;3946;48.958;8.284;2023-07-28T08:23:46;99905.88;;;21.36;100.00
163;BME280;3946;48.958;8.284;2023-07-28T08:26:31;99911.94;;;21.74;100.00
163;BME280;3946;48.958;8.284;2023-07-28T08:29:16;99913.28;;;21.55;100.00
163;BME280;3946;48.958;8.284;2023-07-28T08:32:08;99912.00;;;21.65;100.00
163;BME280;3946;48.958;8.284;2023-07-28T08:34:56;99907.88;;;21.48;100.00
163;BME280;3946;48.958;8.284;2023-07-28T08:37:41;99910.19;;;21.51;100.00
163;BME280;3946;48.958;8.284;2023-07-28T08:40:28;99908.56;;;21.65;100.00
163;BME280;3946;48.958;8.284;2023-07-28T08:43:13;99912.19;;;21.64;100.00
163;BME280;3946;48.958;8.284;2023-07-28T08:45:59;99915.59;;;21.87;100.00
163;BME280;3946;48.958;8.284;2023-07-28T08:48:44;99905.47;;;22.50;97.54
163;BME280;3946;48.958;8.284;2023-07-28T08:51:30;99901.47;;;22.54;93.98
163;BME280;3946;48.958;8.284;2023-07-28T08:54:15;99905.59;;;22.63;94.83
163;BME280;3946;48.958;8.284;2023-07-28T08:57:02;99903.34;;;22.60;92.93
163;BME280;3946;48.958;8.284;2023-07-28T08:59:48;99895.22;;;22.11;94.52
163;BME280;3946;48.958;8.284;2023-07-28T09:02:33;99904.88;;;22.18;93.98
163;BME280;3946;48.958;8.284;2023-07-28T09:05:21;99905.41;;;22.28;92.27
163;BME280;3946;48.958;8.284;2023-07-28T09:15:13;99908.19;;;22.92;90.09
163;BME280;3946;48.958;8.284;2023-07-28T09:18:07;99910.59;;;22.87;88.16
163;BME280;3946;48.958;8.284;2023-07-28T09:21:26;99883.53;;;22.85;85.78
163;BME280;3946;48.958;8.284;2023-07-28T09:24:32;99916.63;;;23.02;88.07
163;BME280;3946;48.958;8.284;2023-07-28T09:27:22;99906.28;;;23.08;87.09
163;BME280;3946;48.958;8.284;2023-07-28T09:30:08;99899.47;;;23.41;84.90
163;BME280;3946;48.958;8.284;2023-07-28T09:32:55;99902.09;;;23.13;85.11
163;BME280;3946;48.958;8.284;2023-07-28T09:35:48;99897.34;;;23.51;83.52
163;BME280;3946;48.958;8.284;2023-07-28T09:38:35;99904.50;;;23.85;84.64
163;BME280;3946;48.958;8.284;2023-07-28T09:41:22;99888.25;;;23.39;82.18
163;BME280;3946;48.958;8.284;2023-07-28T09:44:08;99895.59;;;23.37;82.42
163;BME280;3946;48.958;8.284;2023-07-28T09:46:55;99887.91;;;23.70;82.64
163;BME280;3946;48.958;8.284;2023-07-28T09:49:46;99896.03;;;24.03;82.72
163;BME280;3946;48.958;8.284;2023-07-28T09:52:34;99886.88;;;24.53;80.79
163;BME280;3946;48.958;8.284;2023-07-28T09:55:22;99895.31;;;23.88;80.36
163;BME280;3946;48.958;8.284;2023-07-28T09:58:09;99898.56;;;24.65;79.11
163;BME280;3946;48.958;8.284;2023-07-28T10:00:56;99896.06;;;24.51;79.40
163;BME280;3946;48.958;8.284;2023-07-28T10:03:42;99900.03;;;23.92;80.63
163;BME280;3946;48.958;8.284;2023-07-28T10:06:29;99890.19;;;24.21;77.92
163;BME280;3946;48.958;8.284;2023-07-28T10:09:15;99905.50;;;24.19;80.20
163;BME280;3946;48.958;8.284;2023-07-28T10:12:01;99903.13;;;23.96;79.96
163;BME280;3946;48.958;8.284;2023-07-28T10:14:47;99899.84;;;23.94;79.62
163;BME280;3946;48.958;8.284;2023-07-28T10:17:45;99903.38;;;23.73;80.34
163;BME280;3946;48.958;8.284;2023-07-28T10:20:36;99900.22;;;23.84;79.85
163;BME280;3946;48.958;8.284;2023-07-28T10:23:24;99900.09;;;23.99;79.65
163;BME280;3946;48.958;8.284;2023-07-28T10:26:09;99898.97;;;24.21;77.80
163;BME280;3946;48.958;8.284;2023-07-28T10:28:54;99909.25;;;24.37;77.49
163;BME280;3946;48.958;8.284;2023-07-28T10:31:50;99915.97;;;24.33;77.64
163;BME280;3946;48.958;8.284;2023-07-28T10:34:36;99912.97;;;24.08;78.12
163;BME280;3946;48.958;8.284;2023-07-28T10:37:22;99910.47;;;24.35;79.96
163;BME280;3946;48.958;8.284;2023-07-28T10:40:27;99916.38;;;24.30;78.56
163;BME280;3946;48.958;8.284;2023-07-28T10:43:13;99919.44;;;23.71;79.53
163;BME280;3946;48.958;8.284;2023-07-28T10:45:59;99912.53;;;24.05;79.70
163;BME280;3946;48.958;8.284;2023-07-28T10:48:47;99908.41;;;24.30;77.93
163;BME280;3946;48.958;8.284;2023-07-28T10:51:35;99901.59;;;24.15;78.23
163;BME280;3946;48.958;8.284;2023-07-28T10:54:21;99912.94;;;24.02;77.84
163;BME280;3946;48.958;8.284;2023-07-28T10:57:08;99919.53;;;24.19;78.37
163;BME280;3946;48.958;8.284;2023-07-28T10:59:59;99915.59;;;24.08;79.10
163;BME280;3946;48.958;8.284;2023-07-28T11:02:46;99905.97;;;24.29;77.67
163;BME280;3946;48.958;8.284;2023-07-28T11:05:32;99922.53;;;23.75;79.11
163;BME280;3946;48.958;8.284;2023-07-28T11:08:17;99921.97;;;23.52;80.16
163;BME280;3946;48.958;8.284;2023-07-28T11:11:04;99925.41;;;23.31;81.06
163;BME280;3946;48.958;8.284;2023-07-28T11:13:52;99909.88;;;23.70;80.13
163;BME280;3946;48.958;8.284;2023-07-28T11:16:40;99917.22;;;23.68;80.00
163;BME280;3946;48.958;8.284;2023-07-28T11:19:26;99926.50;;;23.86;79.20
163;BME280;3946;48.958;8.284;2023-07-28T11:22:11;99921.78;;;23.53;79.92
163;BME280;3946;48.958;8.284;2023-07-28T11:24:56;99934.38;;;23.30;83.69
163;BME280;3946;48.958;8.284;2023-07-28T11:27:42;99936.53;;;23.20;84.48
163;BME280;3946;48.958;8.284;2023-07-28T11:30:29;99942.91;;;22.75;86.46
163;BME280;3946;48.958;8.284;2023-07-28T11:33:15;99941.16;;;22.46;89.31
163;BME280;3946;48.958;8.284;2023-07-28T11:36:01;99945.09;;;22.20;91.78
163;BME280;3946;48.958;8.284;2023-07-28T11:38:46;99947.38;;;22.23;92.30
163;BME280;3946;48.958;8.284;2023-07-28T11:41:33;99945.19;;;22.27;94.25
163;BME280;3946;48.958;8.284;2023-07-28T11:44:19;99941.09;;;22.39;92.45
163;BME280;3946;48.958;8.284;2023-07-28T11:47:06;99944.94;;;22.07;93.34
163;BME280;3946;48.958;8.284;2023-07-28T11:49:51;99944.63;;;22.31;92.74
163;BME280;3946;48.958;8.284;2023-07-28T11:52:37;99944.81;;;22.30;94.58
163;BME280;3946;48.958;8.284;2023-07-28T11:55:23;99937.34;;;22.48;92.19
163;BME280;3946;48.958;8.284;2023-07-28T11:58:08;99945.00;;;22.14;95.77
163;BME280;3946;48.958;8.284;2023-07-28T12:00:55;99940.06;;;22.25;94.25
163;BME280;3946;48.958;8.284;2023-07-28T12:03:42;99940.53;;;22.44;94.77
163;BME280;3946;48.958;8.284;2023-07-28T12:06:27;99932.97;;;22.26;96.03
163;BME280;3946;48.958;8.284;2023-07-28T12:09:12;99929.97;;;22.29;94.26
163;BME280;3946;48.958;8.284;2023-07-28T12:11:58;99932.38;;;22.24;94.69
163;BME280;3946;48.958;8.284;2023-07-28T12:14:43;99929.06;;;22.37;95.31
163;BME280;3946;48.958;8.284;2023-07-28T12:17:30;99942.19;;;22.15;97.83
163;BME280;3946;48.958;8.284;2023-07-28T12:20:16;99941.53;;;22.13;98.93
163;BME280;3946;48.958;8.284;2023-07-28T12:23:03;99948.94;;;22.03;99.03
163;BME280;3946;48.958;8.284;2023-07-28T12:25:48;99942.22;;;21.92;100.00
163;BME280;3946;48.958;8.284;2023-07-28T12:28:34;99955.84;;;22.19;100.00
163;BME280;3946;48.958;8.284;2023-07-28T12:31:19;99951.25;;;21.83;100.00
163;BME280;3946;48.958;8.284;2023-07-28T12:34:05;99966.34;;;21.75;100.00
163;BME280;3946;48.958;8.284;2023-07-28T12:36:51;99960.94;;;21.68;100.00
163;BME280;3946;48.958;8.284;2023-07-28T12:39:38;99971.88;;;21.42;100.00
163;BME280;3946;48.958;8.284;2023-07-28T12:42:23;99966.91;;;21.24;100.00
163;BME280;3946;48.958;8.284;2023-07-28T12:45:09;99971.19;;;21.17;100.00
163;BME280;3946;48.958;8.284;2023-07-28T12:47:55;99968.91;;;21.22;100.00
163;BME280;3946;48.958;8.284;2023-07-28T12:50:40;99972.88;;;20.87;100.00
163;BME280;3946;48.958;8.284;2023-07-28T12:53:27;99977.06;;;21.05;100.00
163;BME280;3946;48.958;8.284;2023-07-28T12:56:12;99982.03;;;21.00;100.00
163;BME280;3946;48.958;8.284;2023-07-28T12:58:57;99984.47;;;21.01;100.00
163;BME280;3946;48.958;8.284;2023-07-28T13:01:43;99992.53;;;21.08;100.00
163;BME280;3946;48.958;8.284;2023-07-28T13:04:28;99986.75;;;21.35;100.00
163;BME280;3946;48.958;8.284;2023-07-28T13:07:13;99994.78;;;21.11;100.00
163;BME280;3946;48.958;8.284;2023-07-28T13:10:00;99991.47;;;21.17;100.00
163;BME280;3946;48.958;8.284;2023-07-28T13:12:45;100001.72;;;21.43;100.00
163;BME280;3946;48.958;8.284;2023-07-28T13:15:31;99999.72;;;21.14;100.00
163;BME280;3946;48.958;8.284;2023-07-28T13:18:16;99997.97;;;21.06;100.00
163;BME280;3946;48.958;8.284;2023-07-28T13:21:01;99987.72;;;20.80;100.00
163;BME280;3946;48.958;8.284;2023-07-28T13:23:46;99996.28;;;20.82;100.00
163;BME280;3946;48.958;8.284;2023-07-28T13:26:33;100004.97;;;20.91;100.00
163;BME280;3946;48.958;8.284;2023-07-28T13:29:19;99987.19;;;21.24;100.00
163;BME280;3946;48.958;8.284;2023-07-28T13:32:15;99966.53;;;21.50;100.00
163;BME280;3946;48.958;8.284;2023-07-28T13:35:00;99957.88;;;21.42;100.00
163;BME280;3946;48.958;8.284;2023-07-28T13:37:46;99953.00;;;21.30;100.00
163;BME280;3946;48.958;8.284;2023-07-28T13:40:31;99956.19;;;21.26;100.00
163;BME280;3946;48.958;8.284;2023-07-28T13:43:18;99963.22;;;21.03;100.00
163;BME280;3946;48.958;8.284;2023-07-28T13:46:04;99963.69;;;21.37;100.00
163;BME280;3946;48.958;8.284;2023-07-28T13:48:49;99976.81;;;21.14;100.00
163;BME280;3946;48.958;8.284;2023-07-28T13:51:35;99970.56;;;21.15;100.00
163;BME280;3946;48.958;8.284;2023-07-28T13:54:20;99980.09;;;21.24;100.00
163;BME280;3946;48.958;8.284;2023-07-28T13:57:05;99988.53;;;21.12;100.00
163;BME280;3946;48.958;8.284;2023-07-28T13:59:52;99994.50;;;21.06;100.00
163;BME280;3946;48.958;8.284;2023-07-28T14:02:38;100001.03;;;20.87;100.00
163;BME280;3946;48.958;8.284;2023-07-28T14:05:23;100000.97;;;20.95;100.00
163;BME280;3946;48.958;8.284;2023-07-28T14:08:09;100006.59;;;20.61;100.00
163;BME280;3946;48.958;8.284;2023-07-28T14:10:55;100010.72;;;20.47;100.00
163;BME280;3946;48.958;8.284;2023-07-28T14:13:40;100012.19;;;20.50;100.00
163;BME280;3946;48.958;8.284;2023-07-28T14:16:26;100019.00;;;20.44;100.00
163;BME280;3946;48.958;8.284;2023-07-28T14:19:11;100028.53;;;20.45;100.00
163;BME280;3946;48.958;8.284;2023-07-28T14:21:57;100042.31;;;20.47;100.00
163;BME280;3946;48.958;8.284;2023-07-28T14:24:42;100041.97;;;20.58;100.00
163;BME280;3946;48.958;8.284;2023-07-28T14:27:28;100027.59;;;20.77;100.00
163;BME280;3946;48.958;8.284;2023-07-28T14:30:13;100018.97;;;20.83;100.00
163;BME280;3946;48.958;8.284;2023-07-28T14:32:59;100019.72;;;20.69;100.00
163;BME280;3946;48.958;8.284;2023-07-28T14:35:46;100019.06;;;20.98;100.00
163;BME280;3946;48.958;8.284;2023-07-28T14:38:32;100029.91;;;20.72;100.00
163;BME280;3946;48.958;8.284;2023-07-28T14:41:17;100030.78;;;20.95;100.00
163;BME280;3946;48.958;8.284;2023-07-28T14:44:03;100033.22;;;20.97;100.00
163;BME280;3946;48.958;8.284;2023-07-28T14:46:48;100019.69;;;21.08;100.00
163;BME280;3946;48.958;8.284;2023-07-28T14:49:34;100005.88;;;21.06;100.00
163;BME280;3946;48.958;8.284;2023-07-28T14:52:19;100011.16;;;20.98;100.00
163;BME280;3946;48.958;8.284;2023-07-28T14:55:05;100004.25;;;20.97;100.00
163;BME280;3946;48.958;8.284;2023-07-28T14:57:51;100003.66;;;20.87;100.00
163;BME280;3946;48.958;8.284;2023-07-28T15:00:36;100009.00;;;21.02;100.00
163;BME280;3946;48.958;8.284;2023-07-28T15:03:22;99994.75;;;21.19;100.00
163;BME280;3946;48.958;8.284;2023-07-28T15:06:08;99993.38;;;21.00;100.00
163;BME280;3946;48.958;8.284;2023-07-28T15:08:54;99999.25;;;20.79;100.00
163;BME280;3946;48.958;8.284;2023-07-28T15:11:39;99993.53;;;20.76;100.00
163;BME280;3946;48.958;8.284;2023-07-28T15:14:24;100022.84;;;20.65;100.00
163;BME280;3946;48.958;8.284;2023-07-28T15:17:10;100024.31;;;20.67;100.00
163;BME280;3946;48.958;8.284;2023-07-28T15:19:55;100027.94;;;20.66;100.00